Time;durP1;ratioP1;P1;durP2;ratioP2;P2;SDS_P1;SDS_P2;PMS_P1;PMS_P2;Temp;Humidity;BMP_temperature;BMP_pressure;BME280_temperature;BME280_humidity;BME280_pressure;Samples;Min_cycle;Max_cycle;Signal;HPM_P1;HPM_P2
2023/04/24 00:02:04;;;;;;;;;;;;;;;18.91;71.26;100647.97;7400408;19;1281;-52
2023/04/24 00:04:32;;;;;;;;;;;;;;;18.96;70.76;100651.06;7397786;19;1475;-52
2023/04/24 00:07:00;;;;;;;;;;;;;;;18.95;70.99;100646.69;7398551;19;1854;-52
2023/04/24 00:09:29;;;;;;;;;;;;;;;18.91;71.16;100640.75;7397763;19;1275;-53
2023/04/24 00:11:57;;;;;;;;;;;;;;;18.85;71.55;100644.00;7398892;19;1131;-52
2023/04/24 00:14:28;;;;;;;;;;;;;;;18.91;71.01;100634.56;7398976;19;1219;-52
2023/04/24 00:16:56;;;;;;;;;;;;;;;18.94;71.08;100640.50;7398886;19;1420;-52
2023/04/24 00:19:24;;;;;;;;;;;;;;;18.95;70.88;100626.09;7398314;19;1435;-52
2023/04/24 00:21:53;;;;;;;;;;;;;;;18.92;70.92;100637.13;7398334;19;1571;-52
2023/04/24 00:24:21;;;;;;;;;;;;;;;18.92;70.97;100641.59;7398661;19;1850;-52
2023/04/24 00:26:50;;;;;;;;;;;;;;;18.89;71.19;100637.38;7396895;19;1859;-52
2023/04/24 00:29:18;;;;;;;;;;;;;;;18.93;70.80;100630.75;7398491;19;1498;-53
2023/04/24 00:31:49;;;;;;;;;;;;;;;18.90;71.09;100644.44;7399560;19;1123;-52
2023/04/24 00:34:18;;;;;;;;;;;;;;;18.88;70.91;100635.69;7398373;19;1579;-52
2023/04/24 00:36:46;;;;;;;;;;;;;;;18.92;70.99;100634.44;7398492;19;1389;-52
2023/04/24 00:39:15;;;;;;;;;;;;;;;18.90;71.00;100628.38;7397511;19;1443;-52
2023/04/24 00:41:43;;;;;;;;;;;;;;;18.86;70.94;100626.91;7398391;19;1222;-52
2023/04/24 00:44:12;;;;;;;;;;;;;;;18.87;70.94;100625.94;7397809;19;1522;-52
2023/04/24 00:46:40;;;;;;;;;;;;;;;18.87;71.11;100634.00;7396190;19;1855;-52
2023/04/24 00:49:11;;;;;;;;;;;;;;;18.85;70.91;100630.59;7396890;19;1258;-52
2023/04/24 00:51:40;;;;;;;;;;;;;;;18.86;71.13;100621.56;7397064;19;1546;-52
2023/04/24 00:54:08;;;;;;;;;;;;;;;18.84;70.85;100623.53;7396838;19;1448;-52
2023/04/24 00:56:37;;;;;;;;;;;;;;;18.88;70.79;100619.63;7397509;19;1490;-52
2023/04/24 00:59:05;;;;;;;;;;;;;;;18.89;70.83;100607.91;7397735;19;1112;-53
2023/04/24 01:01:34;;;;;;;;;;;;;;;18.91;70.80;100613.13;7397455;19;1405;-54
2023/04/24 01:04:02;;;;;;;;;;;;;;;18.92;70.38;100618.34;7396681;19;1223;-52
2023/04/24 01:06:34;;;;;;;;;;;;;;;18.81;71.22;100610.44;7396553;19;1859;-52
2023/04/24 01:09:03;;;;;;;;;;;;;;;18.88;70.71;100608.91;7396809;19;1218;-52
2023/04/24 01:11:31;;;;;;;;;;;;;;;18.85;70.96;100614.53;7396304;19;1527;-52
2023/04/24 01:14:00;;;;;;;;;;;;;;;18.92;70.47;100615.69;7396553;19;1563;-52
2023/04/24 01:16:28;;;;;;;;;;;;;;;18.74;71.13;100601.22;7396258;19;1401;-52
2023/04/24 01:18:56;;;;;;;;;;;;;;;18.83;71.15;100598.59;7396594;19;1476;-52
2023/04/24 01:21:27;;;;;;;;;;;;;;;18.83;71.04;100617.34;7396107;19;1472;-53
2023/04/24 01:23:58;;;;;;;;;;;;;;;18.78;70.96;100602.63;7396522;19;1684;-52
2023/04/24 01:26:26;;;;;;;;;;;;;;;18.81;70.88;100602.41;7395251;19;1856;-52
2023/04/24 01:28:54;;;;;;;;;;;;;;;18.79;71.02;100615.03;7395885;19;1364;-52
2023/04/24 01:31:23;;;;;;;;;;;;;;;18.85;70.67;100610.00;7396823;19;1191;-52
2023/04/24 01:33:52;;;;;;;;;;;;;;;18.82;70.65;100593.34;7395182;19;1230;-52
2023/04/24 01:36:20;;;;;;;;;;;;;;;18.77;71.36;100592.91;7396311;19;1261;-53
2023/04/24 01:38:49;;;;;;;;;;;;;;;18.81;70.83;100605.06;7396295;19;1582;-52
2023/04/24 01:41:20;;;;;;;;;;;;;;;18.78;70.98;100590.09;7396127;19;1471;-52
2023/04/24 01:43:49;;;;;;;;;;;;;;;18.56;72.04;100596.53;7394817;19;1116;-53
2023/04/24 01:46:17;;;;;;;;;;;;;;;18.78;72.20;100597.25;7394991;19;1853;-53
2023/04/24 01:48:47;;;;;;;;;;;;;;;19.55;69.99;100575.03;7396407;19;1653;-52
2023/04/24 01:51:15;;;;;;;;;;;;;;;19.96;68.77;100561.41;7395641;19;1455;-52
2023/04/24 01:53:43;;;;;;;;;;;;;;;20.23;68.04;100571.31;7396164;19;1237;-53
2023/04/24 01:56:11;;;;;;;;;;;;;;;20.20;68.38;100564.41;7396469;19;1877;-52
2023/04/24 01:58:42;;;;;;;;;;;;;;;20.30;68.30;100572.41;7395415;19;1520;-53
2023/04/24 02:01:11;;;;;;;;;;;;;;;20.39;68.08;100557.25;7395375;19;1214;-52
2023/04/24 02:03:39;;;;;;;;;;;;;;;20.40;68.06;100564.31;7394793;19;1353;-52
2023/04/24 02:06:07;;;;;;;;;;;;;;;20.34;68.25;100567.59;7395585;19;1868;-52
2023/04/24 02:08:36;;;;;;;;;;;;;;;20.42;68.03;100562.31;7394651;19;1565;-52
2023/04/24 02:11:04;;;;;;;;;;;;;;;20.33;68.40;100557.84;7395102;19;1011;-52
2023/04/24 02:13:32;;;;;;;;;;;;;;;20.31;68.48;100554.47;7394420;19;1138;-52
2023/04/24 02:16:03;;;;;;;;;;;;;;;20.35;68.48;100551.34;7399837;19;1222;-52
2023/04/24 02:18:32;;;;;;;;;;;;;;;20.36;68.13;100546.81;7402081;19;1571;-52
2023/04/24 02:21:00;;;;;;;;;;;;;;;20.42;68.22;100541.66;7402552;19;1609;-52
2023/04/24 02:23:28;;;;;;;;;;;;;;;20.49;68.17;100549.13;7402081;19;1289;-52
2023/04/24 02:25:56;;;;;;;;;;;;;;;20.57;67.96;100541.16;7402738;19;1847;-52
2023/04/24 02:28:25;;;;;;;;;;;;;;;20.59;67.82;100545.44;7400589;19;1156;-52
2023/04/24 02:30:53;;;;;;;;;;;;;;;20.52;68.05;100554.22;7401663;19;1571;-52
2023/04/24 02:33:24;;;;;;;;;;;;;;;20.60;67.63;100533.69;7400861;19;1254;-52
2023/04/24 02:35:52;;;;;;;;;;;;;;;20.56;67.89;100548.38;7403978;19;1074;-52
2023/04/24 02:38:21;;;;;;;;;;;;;;;20.58;67.95;100546.38;7401946;19;1483;-51
2023/04/24 02:40:49;;;;;;;;;;;;;;;20.64;67.71;100529.69;7402484;19;1542;-52
2023/04/24 02:43:17;;;;;;;;;;;;;;;20.70;67.55;100522.03;7402233;19;1178;-52
2023/04/24 02:45:45;;;;;;;;;;;;;;;20.78;67.43;100540.91;7403315;19;1225;-52
2023/04/24 02:48:14;;;;;;;;;;;;;;;20.84;66.92;100524.19;7401034;19;1841;-52
2023/04/24 02:50:45;;;;;;;;;;;;;;;20.73;67.49;100514.50;7402090;19;1805;-52
2023/04/24 02:53:13;;;;;;;;;;;;;;;20.69;67.41;100539.13;7402526;19;1471;-52
2023/04/24 02:55:41;;;;;;;;;;;;;;;20.74;67.29;100528.78;7400821;19;1527;-52
2023/04/24 02:58:10;;;;;;;;;;;;;;;20.68;67.47;100545.53;7401476;19;1543;-52
2023/04/24 03:00:38;;;;;;;;;;;;;;;20.69;67.39;100541.81;7400631;19;1535;-52
2023/04/24 03:03:07;;;;;;;;;;;;;;;20.61;67.71;100532.69;7401632;19;1238;-52
2023/04/24 03:05:35;;;;;;;;;;;;;;;20.66;67.67;100546.50;7399012;19;1342;-51
2023/04/24 03:08:06;;;;;;;;;;;;;;;20.72;67.30;100534.31;7395279;19;1868;-52
2023/04/24 03:10:34;;;;;;;;;;;;;;;20.73;67.48;100543.19;7400516;19;1420;-52
2023/04/24 03:13:03;;;;;;;;;;;;;;;20.87;67.07;100534.63;7400220;19;1531;-52
2023/04/24 03:15:31;;;;;;;;;;;;;;;20.95;66.86;100540.09;7400089;19;1538;-52
2023/04/24 03:18:00;;;;;;;;;;;;;;;20.84;67.10;100545.69;7401330;19;1201;-52
2023/04/24 03:20:28;;;;;;;;;;;;;;;20.83;67.27;100546.66;7401002;19;1832;-52
2023/04/24 03:22:57;;;;;;;;;;;;;;;20.75;67.52;100538.53;7399717;19;1542;-52
2023/04/24 03:25:28;;;;;;;;;;;;;;;20.81;67.02;100545.97;7399479;19;1420;-52
2023/04/24 03:27:56;;;;;;;;;;;;;;;20.83;66.96;100549.34;7395374;19;1843;-52
2023/04/24 03:30:25;;;;;;;;;;;;;;;20.64;67.62;100543.13;7400290;19;1590;-52
2023/04/24 03:32:53;;;;;;;;;;;;;;;20.71;67.55;100550.56;7400626;19;1155;-52
2023/04/24 03:35:21;;;;;;;;;;;;;;;20.83;67.24;100544.84;7399965;19;1523;-52
2023/04/24 03:37:50;;;;;;;;;;;;;;;20.93;66.90;100550.16;7399000;19;1261;-52
2023/04/24 03:40:18;;;;;;;;;;;;;;;20.91;66.82;100536.00;7399778;19;1908;-52
2023/04/24 03:42:49;;;;;;;;;;;;;;;20.89;67.11;100542.53;7399423;19;1610;-52
2023/04/24 03:45:18;;;;;;;;;;;;;;;20.83;67.22;100549.34;7399315;19;1433;-52
2023/04/24 03:47:46;;;;;;;;;;;;;;;20.83;67.22;100554.72;7398245;19;1858;-51
2023/04/24 03:50:14;;;;;;;;;;;;;;;20.83;67.17;100554.72;7398712;19;1266;-52
2023/04/24 03:52:42;;;;;;;;;;;;;;;20.83;67.37;100570.84;7399490;19;1480;-52
2023/04/24 03:55:12;;;;;;;;;;;;;;;20.84;66.97;100561.81;7399409;19;1504;-52
2023/04/24 03:57:41;;;;;;;;;;;;;;;20.85;66.96;100558.97;7399749;19;1445;-52
2023/04/24 04:00:12;;;;;;;;;;;;;;;20.83;67.04;100549.34;7398387;19;1400;-52
2023/04/24 04:02:41;;;;;;;;;;;;;;;20.59;67.90;100558.00;7399048;19;1163;-52
2023/04/24 04:05:10;;;;;;;;;;;;;;;20.50;67.75;100565.09;7397618;19;1980;-52
2023/04/24 04:07:38;;;;;;;;;;;;;;;20.35;68.25;100563.91;7398214;19;1845;-53
2023/04/24 04:10:07;;;;;;;;;;;;;;;20.22;68.56;100567.78;7399237;19;1267;-52
2023/04/24 04:12:35;;;;;;;;;;;;;;;20.16;68.77;100557.66;7399931;19;1021;-52
2023/04/24 04:15:04;;;;;;;;;;;;;;;20.18;68.42;100560.19;7398053;19;1535;-52
2023/04/24 04:17:35;;;;;;;;;;;;;;;20.19;68.38;100562.72;7398531;19;1578;-52
2023/04/24 04:20:07;;;;;;;;;;;;;;;20.61;66.73;100574.81;7399204;19;1590;-52
2023/04/24 04:22:35;;;;;;;;;;;;;;;20.97;65.64;100562.28;7399381;19;1530;-52
2023/04/24 04:25:04;;;;;;;;;;;;;;;21.60;63.67;100560.47;7398221;19;1469;-52
2023/04/24 04:27:32;;;;;;;;;;;;;;;22.44;61.33;100553.50;7396518;19;1858;-52
2023/04/24 04:30:01;;;;;;;;;;;;;;;22.42;61.18;100560.91;7397758;19;1178;-52
2023/04/24 04:32:29;;;;;;;;;;;;;;;21.95;62.26;100566.75;7396732;19;1202;-52
2023/04/24 04:35:02;;;;;;;;;;;;;;;21.35;64.35;100565.63;7397119;19;1515;-51
2023/04/24 04:37:31;;;;;;;;;;;;;;;21.18;65.00;100559.25;7397156;19;1488;-52
2023/04/24 04:40:00;;;;;;;;;;;;;;;21.08;66.11;100565.72;7398268;19;1417;-52
2023/04/24 04:42:29;;;;;;;;;;;;;;;20.99;66.00;100570.16;7398053;19;1135;-53
2023/04/24 04:44:57;;;;;;;;;;;;;;;20.84;65.94;100572.56;7396689;19;1574;-52
2023/04/24 04:47:26;;;;;;;;;;;;;;;20.81;66.39;100576.41;7398393;19;1852;-52
2023/04/24 04:49:54;;;;;;;;;;;;;;;20.10;68.31;100582.41;7394510;19;1562;-52
2023/04/24 04:52:26;;;;;;;;;;;;;;;19.97;67.95;100579.19;7394675;19;1321;-53
2023/04/24 04:54:55;;;;;;;;;;;;;;;19.86;67.78;100575.69;7396990;19;1430;-54
2023/04/24 04:57:23;;;;;;;;;;;;;;;19.84;67.78;100569.63;7395954;19;1376;-53
2023/04/24 04:59:51;;;;;;;;;;;;;;;20.07;66.30;100574.63;7392593;19;1989;-53
2023/04/24 05:02:20;;;;;;;;;;;;;;;20.04;67.55;100559.66;7393910;19;1164;-53
2023/04/24 05:04:48;;;;;;;;;;;;;;;20.23;67.87;100582.91;7390380;19;1663;-53
2023/04/24 05:07:17;;;;;;;;;;;;;;;20.28;67.30;100582.47;7392709;19;1881;-53
2023/04/24 05:09:48;;;;;;;;;;;;;;;20.07;66.64;100580.00;7392665;19;1547;-53
2023/04/24 05:12:16;;;;;;;;;;;;;;;20.05;63.45;100574.78;7391869;19;1147;-54
2023/04/24 05:14:45;;;;;;;;;;;;;;;19.71;64.20;100574.44;7391843;19;1441;-53
2023/04/24 05:17:13;;;;;;;;;;;;;;;19.57;63.53;100567.66;7392140;19;1439;-53
2023/04/24 05:19:41;;;;;;;;;;;;;;;19.47;64.23;100567.69;7388446;19;1999;-54
2023/04/24 05:22:11;;;;;;;;;;;;;;;19.47;64.34;100582.94;7393349;19;1926;-54
2023/04/24 05:24:39;;;;;;;;;;;;;;;19.64;64.24;100573.31;7392550;19;1186;-54
2023/04/24 05:27:10;;;;;;;;;;;;;;;19.92;63.72;100566.22;7392771;19;1846;-53
2023/04/24 05:29:38;;;;;;;;;;;;;;;20.13;62.25;100565.13;7397091;19;1463;-54
2023/04/24 05:32:07;;;;;;;;;;;;;;;20.09;62.54;100566.44;7396945;19;1139;-53
2023/04/24 05:34:35;;;;;;;;;;;;;;;19.90;62.53;100570.03;7396416;19;1622;-53
2023/04/24 05:37:07;;;;;;;;;;;;;;;19.81;62.87;100559.16;7397385;19;1538;-54
2023/04/24 05:39:36;;;;;;;;;;;;;;;19.82;61.67;100562.72;7397034;19;1593;-53
2023/04/24 05:42:05;;;;;;;;;;;;;;;19.97;61.48;100538.94;7397480;19;1029;-54
2023/04/24 05:44:36;;;;;;;;;;;;;;;19.99;60.05;100558.41;7396030;19;1412;-54
2023/04/24 05:47:04;;;;;;;;;;;;;;;20.20;59.91;100571.63;7395925;19;1851;-54
2023/04/24 05:49:32;;;;;;;;;;;;;;;20.11;60.23;100559.06;7393524;19;1174;-54
2023/04/24 05:52:00;;;;;;;;;;;;;;;19.90;61.21;100567.38;7396700;19;1495;-54
2023/04/24 05:54:29;;;;;;;;;;;;;;;20.00;60.73;100562.81;7396324;19;1487;-54
2023/04/24 05:56:57;;;;;;;;;;;;;;;20.22;60.53;100572.31;7397159;19;1124;-54
2023/04/24 05:59:26;;;;;;;;;;;;;;;20.17;60.61;100553.94;7396376;19;1281;-54
2023/04/24 06:01:57;;;;;;;;;;;;;;;20.07;60.18;100547.78;7395899;19;1432;-54
2023/04/24 06:04:25;;;;;;;;;;;;;;;20.06;60.10;100557.69;7396367;19;1495;-54
2023/04/24 06:06:55;;;;;;;;;;;;;;;20.10;60.03;100541.28;7396865;19;1033;-54
2023/04/24 06:09:24;;;;;;;;;;;;;;;19.97;60.42;100547.81;7394199;19;1855;-54
2023/04/24 06:11:53;;;;;;;;;;;;;;;20.07;60.42;100553.16;7396219;19;1504;-53
2023/04/24 06:14:21;;;;;;;;;;;;;;;20.01;60.36;100559.09;7396234;19;1595;-53
2023/04/24 06:16:49;;;;;;;;;;;;;;;19.96;60.35;100548.00;7394557;19;1558;-54
2023/04/24 06:19:20;;;;;;;;;;;;;;;19.99;60.68;100559.25;7395888;19;1534;-53
2023/04/24 06:21:48;;;;;;;;;;;;;;;19.96;60.43;100564.09;7395875;19;1258;-54
2023/04/24 06:24:17;;;;;;;;;;;;;;;19.95;60.58;100567.75;7395781;19;1031;-54
2023/04/24 06:26:45;;;;;;;;;;;;;;;19.97;60.71;100552.34;7394438;19;1550;-53
2023/04/24 06:29:13;;;;;;;;;;;;;;;19.98;60.69;100554.91;7394464;19;1853;-54
2023/04/24 06:31:41;;;;;;;;;;;;;;;19.93;60.78;100553.63;7396965;19;1150;-54
2023/04/24 06:34:10;;;;;;;;;;;;;;;20.15;60.07;100549.72;7395748;19;1522;-53
2023/04/24 06:36:41;;;;;;;;;;;;;;;20.24;59.25;100554.22;7395319;19;1135;-53
2023/04/24 06:39:09;;;;;;;;;;;;;;;20.12;60.34;100556.25;7395922;19;1069;-53
2023/04/24 06:41:38;;;;;;;;;;;;;;;20.07;60.05;100555.84;7396195;19;1171;-53
2023/04/24 06:44:06;;;;;;;;;;;;;;;20.15;60.09;100558.63;7395416;19;1515;-53
2023/04/24 06:46:34;;;;;;;;;;;;;;;20.01;60.33;100543.00;7395024;19;1601;-53
2023/04/24 06:49:02;;;;;;;;;;;;;;;19.98;60.68;100554.06;7394058;19;1863;-54
2023/04/24 06:51:32;;;;;;;;;;;;;;;19.96;60.98;100561.41;7394603;19;1948;-54
2023/04/24 06:54:03;;;;;;;;;;;;;;;20.01;61.01;100554.56;7394781;19;1564;-54
2023/04/24 06:56:34;;;;;;;;;;;;;;;19.95;61.06;100560.53;7394593;19;1596;-54
2023/04/24 06:59:02;;;;;;;;;;;;;;;19.95;61.68;100559.69;7394968;19;1526;-54
2023/04/24 07:01:30;;;;;;;;;;;;;;;19.92;61.62;100568.06;7397932;19;1917;-54
2023/04/24 07:03:59;;;;;;;;;;;;;;;19.89;61.81;100545.03;7401778;19;1424;-54
2023/04/24 07:06:27;;;;;;;;;;;;;;;19.93;61.81;100556.31;7402635;19;1214;-54
2023/04/24 07:08:56;;;;;;;;;;;;;;;19.91;61.95;100552.94;7400950;19;1851;-54
2023/04/24 07:11:29;;;;;;;;;;;;;;;19.91;61.99;100555.63;7402195;19;1471;-53
2023/04/24 07:13:57;;;;;;;;;;;;;;;20.22;60.98;100538.25;7401606;19;1467;-53
2023/04/24 07:16:25;;;;;;;;;;;;;;;20.27;60.59;100546.72;7401247;19;1824;-53
2023/04/24 07:18:55;;;;;;;;;;;;;;;20.22;60.99;100553.53;7401747;19;1265;-54
2023/04/24 07:21:23;;;;;;;;;;;;;;;20.10;61.30;100558.25;7401397;19;1538;-54
2023/04/24 07:23:51;;;;;;;;;;;;;;;19.99;61.47;100550.38;7401432;19;1538;-53
2023/04/24 07:26:20;;;;;;;;;;;;;;;19.96;61.81;100567.63;7400558;19;1607;-53
2023/04/24 07:28:51;;;;;;;;;;;;;;;19.88;62.21;100547.88;7399874;19;1950;-54
2023/04/24 07:31:19;;;;;;;;;;;;;;;19.83;62.23;100551.81;7402578;19;1056;-53
2023/04/24 07:33:47;;;;;;;;;;;;;;;19.83;62.36;100546.44;7401763;19;1598;-53
2023/04/24 07:36:18;;;;;;;;;;;;;;;19.82;62.61;100549.31;7402174;19;1253;-53
2023/04/24 07:38:47;;;;;;;;;;;;;;;19.82;62.64;100549.31;7401665;19;1550;-53
2023/04/24 07:41:15;;;;;;;;;;;;;;;19.80;62.75;100553.97;7400817;19;1612;-53
2023/04/24 07:43:43;;;;;;;;;;;;;;;19.79;62.90;100550.41;7402495;19;1048;-54
2023/04/24 07:46:15;;;;;;;;;;;;;;;19.74;62.95;100541.97;7399437;19;1673;-53
2023/04/24 07:48:43;;;;;;;;;;;;;;;19.76;62.56;100533.78;7399766;19;1862;-53
2023/04/24 07:51:13;;;;;;;;;;;;;;;19.76;62.88;100539.16;7400813;19;1538;-53
2023/04/24 07:53:41;;;;;;;;;;;;;;;19.81;62.69;100543.06;7400175;19;1229;-54
2023/04/24 07:56:09;;;;;;;;;;;;;;;19.75;62.75;100554.38;7400232;19;1554;-53
2023/04/24 07:58:38;;;;;;;;;;;;;;;19.73;62.65;100537.59;7400236;19;1621;-53
2023/04/24 08:01:06;;;;;;;;;;;;;;;19.69;62.71;100538.84;7400352;19;1541;-53
2023/04/24 08:03:37;;;;;;;;;;;;;;;19.74;62.87;100551.88;7400232;19;1495;-53
2023/04/24 08:06:05;;;;;;;;;;;;;;;19.76;62.44;100531.09;7400389;19;1144;-53
2023/04/24 08:08:34;;;;;;;;;;;;;;;19.74;62.59;100550.03;7398864;19;1845;-53
2023/04/24 08:11:02;;;;;;;;;;;;;;;19.73;62.57;100545.63;7399831;19;1298;-54
2023/04/24 08:13:30;;;;;;;;;;;;;;;19.80;62.32;100538.72;7398283;19;1230;-54
2023/04/24 08:15:59;;;;;;;;;;;;;;;19.83;62.42;100543.78;7398628;19;1436;-53
2023/04/24 08:18:27;;;;;;;;;;;;;;;19.94;62.01;100541.91;7398274;19;1519;-53
2023/04/24 08:21:01;;;;;;;;;;;;;;;19.90;62.22;100557.47;7399444;19;1455;-53
2023/04/24 08:23:29;;;;;;;;;;;;;;;20.14;61.55;100524.72;7399366;19;1609;-53
2023/04/24 08:25:57;;;;;;;;;;;;;;;20.33;60.79;100531.81;7399079;19;1543;-53
2023/04/24 08:28:26;;;;;;;;;;;;;;;20.23;61.40;100526.53;7396328;19;1865;-54
2023/04/24 08:30:54;;;;;;;;;;;;;;;20.08;61.89;100528.00;7398916;19;1528;-54
2023/04/24 08:33:22;;;;;;;;;;;;;;;20.05;62.20;100533.66;7397948;19;1626;-54
2023/04/24 08:35:51;;;;;;;;;;;;;;;20.02;62.41;100539.34;7398929;19;1622;-54
2023/04/24 08:38:22;;;;;;;;;;;;;;;19.95;62.78;100532.88;7398360;19;1385;-53
2023/04/24 08:40:50;;;;;;;;;;;;;;;19.92;63.05;100531.31;7398242;19;1606;-54
2023/04/24 08:43:24;;;;;;;;;;;;;;;19.81;63.33;100510.03;7396931;19;1527;-54
2023/04/24 08:45:52;;;;;;;;;;;;;;;19.81;63.16;100523.44;7397115;19;1253;-54
2023/04/24 08:48:20;;;;;;;;;;;;;;;19.75;63.69;100522.19;7393173;19;1857;-57
2023/04/24 08:50:50;;;;;;;;;;;;;;;19.91;63.45;100524.25;7397145;19;1266;-57
2023/04/24 08:53:22;;;;;;;;;;;;;;;19.85;63.24;100520.31;7395786;19;1480;-56
2023/04/24 08:55:51;;;;;;;;;;;;;;;19.78;63.31;100515.72;7397374;19;1158;-57
2023/04/24 08:58:20;;;;;;;;;;;;;;;19.81;63.46;100513.56;7398080;19;1587;-49
2023/04/24 09:00:49;;;;;;;;;;;;;;;19.79;63.88;100504.81;7397049;19;1115;-50
2023/04/24 09:03:18;;;;;;;;;;;;;;;19.77;63.92;100496.06;7398320;19;1056;-48
2023/04/24 09:05:49;;;;;;;;;;;;;;;19.74;64.16;100504.41;7397586;19;1476;-49
2023/04/24 09:08:18;;;;;;;;;;;;;;;19.75;64.60;100511.47;7395703;19;1846;-48
2023/04/24 09:10:49;;;;;;;;;;;;;;;19.70;64.61;100489.59;7396455;19;1527;-48
2023/04/24 09:13:17;;;;;;;;;;;;;;;19.71;64.84;100493.97;7397334;19;1528;-48
2023/04/24 09:15:46;;;;;;;;;;;;;;;19.71;64.67;100498.47;7396420;19;1285;-48
2023/04/24 09:18:14;;;;;;;;;;;;;;;19.71;65.06;100490.41;7396582;19;1567;-48
2023/04/24 09:20:57;;;;;;;;;;;;;;;19.79;64.81;100474.47;7396785;19;1615;-49
2023/04/24 09:23:25;;;;;;;;;;;;;;;19.80;64.95;100476.16;7396128;19;2062;-49
2023/04/24 09:26:00;;;;;;;;;;;;;;;19.78;64.96;100484.34;7393567;19;1491;-49
2023/04/24 09:28:29;;;;;;;;;;;;;;;19.78;65.06;100478.16;7395466;19;1853;-49
2023/04/24 09:31:07;;;;;;;;;;;;;;;19.77;65.19;100479.13;7396302;19;1546;-50
2023/04/24 09:33:35;;;;;;;;;;;;;;;19.77;65.29;100479.97;7395867;19;1258;-49
2023/04/24 09:36:05;;;;;;;;;;;;;;;19.76;65.46;100467.56;7396840;19;1329;-48
2023/04/24 09:38:34;;;;;;;;;;;;;;;19.79;65.20;100453.84;7395055;19;1547;-48
2023/04/24 09:41:07;;;;;;;;;;;;;;;19.80;65.41;100471.63;7395593;19;1226;-48
2023/04/24 09:43:35;;;;;;;;;;;;;;;19.79;65.55;100469.94;7396940;19;1382;-45
2023/04/24 09:46:07;;;;;;;;;;;;;;;19.71;65.16;100459.09;7389861;19;1391;-45
2023/04/24 09:48:36;;;;;;;;;;;;;;;19.71;65.36;100460.91;7391541;19;1849;-45
2023/04/24 09:51:06;;;;;;;;;;;;;;;19.94;64.95;100461.41;7391789;19;1143;-45
2023/04/24 09:53:35;;;;;;;;;;;;;;;19.98;64.78;100460.13;7394920;19;1567;-45
2023/04/24 09:56:12;;;;;;;;;;;;;;;19.95;64.70;100457.72;7394072;19;1507;-45
2023/04/24 09:58:41;;;;;;;;;;;;;;;19.88;64.58;100451.28;7394471;19;1527;-45
2023/04/24 10:01:09;;;;;;;;;;;;;;;20.06;64.23;100449.47;7391137;19;1425;-45
2023/04/24 10:03:38;;;;;;;;;;;;;;;20.68;62.63;100448.78;7392865;19;1405;-45
2023/04/24 10:06:08;;;;;;;;;;;;;;;20.77;62.22;100461.28;7393300;19;1314;-45
2023/04/24 10:08:37;;;;;;;;;;;;;;;20.48;63.15;100446.22;7391928;19;1857;-45
2023/04/24 10:11:05;;;;;;;;;;;;;;;20.31;63.67;100457.78;7394189;19;1248;-45
2023/04/24 10:13:37;;;;;;;;;;;;;;;20.26;63.92;100439.44;7393831;19;1041;-45
2023/04/24 10:16:06;;;;;;;;;;;;;;;20.34;63.57;100438.69;7393770;19;1864;-46
2023/04/24 10:18:34;;;;;;;;;;;;;;;20.06;64.36;100434.19;7391609;19;1826;-45
2023/04/24 10:21:03;;;;;;;;;;;;;;;19.93;64.76;100435.56;7393266;19;1441;-45
2023/04/24 10:23:32;;;;;;;;;;;;;;;20.10;64.56;100437.44;7393458;19;1591;-45
2023/04/24 10:26:02;;;;;;;;;;;;;;;20.10;64.28;100439.28;7393498;19;1488;-45
2023/04/24 10:28:33;;;;;;;;;;;;;;;20.01;64.68;100424.91;7394431;19;1143;-45
2023/04/24 10:31:04;;;;;;;;;;;;;;;19.88;64.99;100427.13;7393678;19;1488;-46
2023/04/24 10:33:33;;;;;;;;;;;;;;;19.77;65.42;100410.22;7391560;19;1578;-45
2023/04/24 10:36:01;;;;;;;;;;;;;;;19.76;65.43;100429.16;7395546;19;1187;-45
2023/04/24 10:38:31;;;;;;;;;;;;;;;19.71;65.68;100428.72;7400244;19;1619;-45
2023/04/24 10:41:15;;;;;;;;;;;;;;;19.64;66.00;100423.09;7400856;19;1614;-45
2023/04/24 10:43:43;;;;;;;;;;;;;;;19.61;66.30;100418.03;7400454;19;1540;-45
2023/04/24 10:46:19;;;;;;;;;;;;;;;19.82;65.67;100421.34;7401223;19;1542;-45
2023/04/24 10:48:54;;;;;;;;;;;;;;;20.50;63.98;100413.84;7400506;19;1845;-43
2023/04/24 10:51:24;;;;;;;;;;;;;;;20.76;63.05;100419.31;7401472;19;1281;-45
2023/04/24 10:53:52;;;;;;;;;;;;;;;20.44;63.61;100418.81;7401898;19;1436;-45
2023/04/24 10:56:21;;;;;;;;;;;;;;;20.26;64.38;100418.81;7401655;19;1444;-46
2023/04/24 10:58:52;;;;;;;;;;;;;;;20.14;64.75;100414.66;7401427;19;1298;-45
2023/04/24 11:01:30;;;;;;;;;;;;;;;20.09;64.65;100403.53;7401676;19;1508;-45
2023/04/24 11:04:00;;;;;;;;;;;;;;;20.00;65.41;100412.50;7401298;19;1401;-43
2023/04/24 11:06:31;;;;;;;;;;;;;;;19.98;65.45;100411.81;7402599;19;1257;-43
2023/04/24 11:09:05;;;;;;;;;;;;;;;20.04;65.49;100413.88;7401275;19;1838;-42
2023/04/24 11:11:33;;;;;;;;;;;;;;;19.96;65.70;100413.78;7401156;19;1285;-42
2023/04/24 11:14:09;;;;;;;;;;;;;;;19.91;65.95;100403.50;7401865;19;1540;-43
2023/04/24 11:16:45;;;;;;;;;;;;;;;19.88;65.86;100409.19;7402161;19;1515;-45
2023/04/24 11:19:20;;;;;;;;;;;;;;;19.87;66.10;100402.09;7402073;19;1480;-43
2023/04/24 11:21:51;;;;;;;;;;;;;;;19.80;66.47;100380.41;7401350;19;1239;-44
2023/04/24 11:24:41;;;;;;;;;;;;;;;19.82;66.49;100394.50;7401141;19;1642;-43
2023/04/24 11:27:15;;;;;;;;;;;;;;;19.78;66.47;100385.09;7398987;19;2299;-43
2023/04/24 11:29:45;;;;;;;;;;;;;;;19.79;66.63;100394.81;7399641;19;1871;-43
2023/04/24 11:32:26;;;;;;;;;;;;;;;19.77;66.70;100382.53;7391912;19;1602;-43
2023/04/24 11:34:55;;;;;;;;;;;;;;;19.75;66.81;100395.25;7397437;19;1488;-42
2023/04/24 11:37:24;;;;;;;;;;;;;;;19.82;66.71;100397.19;7396686;19;1216;-43
2023/04/24 11:39:53;;;;;;;;;;;;;;;19.80;66.59;100396.50;7399322;19;1633;-43
2023/04/24 11:42:22;;;;;;;;;;;;;;;19.81;66.50;100392.81;7397365;19;1157;-43
2023/04/24 11:44:51;;;;;;;;;;;;;;;19.87;66.50;100388.69;7398722;19;1413;-43
2023/04/24 11:47:20;;;;;;;;;;;;;;;19.95;66.42;100371.84;7398962;19;1257;-43
2023/04/24 11:49:52;;;;;;;;;;;;;;;19.94;66.74;100386.28;7399145;19;1839;-42
2023/04/24 11:52:22;;;;;;;;;;;;;;;20.02;66.28;100380.97;7401129;19;1292;-43
2023/04/24 11:54:51;;;;;;;;;;;;;;;20.14;65.77;100377.06;7398648;19;1246;-43
2023/04/24 11:57:22;;;;;;;;;;;;;;;20.06;66.39;100372.47;7399037;19;1455;-43
2023/04/24 11:59:50;;;;;;;;;;;;;;;19.92;66.96;100364.09;7399192;19;1597;-43
2023/04/24 12:02:29;;;;;;;;;;;;;;;20.05;66.26;100369.94;7396488;19;1488;-43
2023/04/24 12:05:00;;;;;;;;;;;;;;;20.24;65.92;100372.47;7396961;19;1495;-43
2023/04/24 12:07:28;;;;;;;;;;;;;;;19.97;66.42;100369.84;7399145;19;1289;-43
2023/04/24 12:10:00;;;;;;;;;;;;;;;19.89;66.84;100356.34;7398438;19;1859;-43
2023/04/24 12:12:29;;;;;;;;;;;;;;;19.93;66.80;100353.19;7399296;19;1516;-43
2023/04/24 12:14:58;;;;;;;;;;;;;;;20.30;65.82;100337.97;7399140;19;1285;-43
2023/04/24 12:17:27;;;;;;;;;;;;;;;20.21;66.07;100345.09;7399385;19;1640;-43
2023/04/24 12:19:59;;;;;;;;;;;;;;;20.32;65.88;100342.16;7399837;19;1513;-43
2023/04/24 12:22:30;;;;;;;;;;;;;;;20.35;65.46;100335.63;7399543;19;1226;-43
2023/04/24 12:25:03;;;;;;;;;;;;;;;20.19;66.06;100339.03;7398717;19;1535;-43
2023/04/24 12:27:32;;;;;;;;;;;;;;;20.07;66.43;100333.03;7397800;19;1534;-43
2023/04/24 12:30:01;;;;;;;;;;;;;;;20.00;66.54;100319.41;7397827;19;1862;-43
2023/04/24 12:32:29;;;;;;;;;;;;;;;20.02;66.57;100333.50;7399926;19;1257;-43
2023/04/24 12:34:58;;;;;;;;;;;;;;;19.91;66.86;100322.16;7399116;19;1637;-43
2023/04/24 12:37:27;;;;;;;;;;;;;;;19.91;66.81;100322.16;7399674;19;1574;-43
2023/04/24 12:40:05;;;;;;;;;;;;;;;19.86;67.15;100317.25;7398760;19;1614;-43
2023/04/24 12:42:34;;;;;;;;;;;;;;;19.82;67.07;100319.38;7398938;19;1655;-43
2023/04/24 12:45:03;;;;;;;;;;;;;;;19.83;67.23;100307.66;7398963;19;1609;-43
2023/04/24 12:47:32;;;;;;;;;;;;;;;19.84;67.19;100312.03;7399083;19;1171;-43
2023/04/24 12:50:01;;;;;;;;;;;;;;;19.92;67.06;100318.50;7397670;19;1849;-43
2023/04/24 12:52:30;;;;;;;;;;;;;;;20.04;66.63;100291.25;7397941;19;1964;-43
2023/04/24 12:54:59;;;;;;;;;;;;;;;20.24;66.18;100307.19;7397862;19;1601;-43
2023/04/24 12:57:31;;;;;;;;;;;;;;;20.13;66.49;100302.91;7397603;19;1277;-43
2023/04/24 13:00:00;;;;;;;;;;;;;;;20.42;65.74;100299.13;7397832;19;1689;-43